Time;durP1;ratioP1;P1;durP2;ratioP2;P2;SDS_P1;SDS_P2;PMS_P1;PMS_P2;Temp;Humidity;BMP_temperature;BMP_pressure;BME280_temperature;BME280_humidity;BME280_pressure;Samples;Min_cycle;Max_cycle;Signal;HPM_P1;HPM_P2
2021/05/19 00:01:38;;;;;;;1.80;0.68;;;12.50;73.20;;;;;;2342525;54;21008;-72
2021/05/19 00:04:05;;;;;;;1.23;0.60;;;12.50;73.20;;;;;;2336983;54;21467;-72
2021/05/19 00:06:31;;;;;;;1.20;0.50;;;12.50;73.40;;;;;;2403233;52;20927;-72
2021/05/19 00:08:57;;;;;;;2.60;0.50;;;12.50;73.60;;;;;;2338695;54;20951;-73
2021/05/19 00:11:24;;;;;;;1.00;0.50;;;12.50;73.70;;;;;;2340911;54;20926;-72
2021/05/19 00:13:51;;;;;;;1.30;0.60;;;12.50;73.80;;;;;;2341675;54;21585;-73
2021/05/19 00:16:17;;;;;;;1.50;0.52;;;12.50;73.90;;;;;;2333793;54;20956;-72
2021/05/19 00:18:44;;;;;;;4.07;0.57;;;12.50;74.00;;;;;;2328769;54;20998;-73
2021/05/19 00:21:10;;;;;;;3.50;0.93;;;12.50;74.00;;;;;;2438475;52;21984;-73
2021/05/19 00:23:37;;;;;;;1.52;0.60;;;12.50;74.10;;;;;;2321756;54;21289;-72
2021/05/19 00:26:03;;;;;;;0.93;0.50;;;12.60;74.20;;;;;;2327198;54;20967;-74
2021/05/19 00:28:30;;;;;;;1.00;0.50;;;12.60;74.10;;;;;;2349974;54;20993;-71
2021/05/19 00:31:02;;;;;;;4.85;1.92;;;12.60;74.10;;;;;;2344855;54;20974;-73
2021/05/19 00:33:31;;;;;;;2.45;1.33;;;12.70;74.20;;;;;;2335008;54;21026;-73
2021/05/19 00:35:58;;;;;;;1.83;0.93;;;12.70;74.20;;;;;;2341989;54;20985;-73
2021/05/19 00:38:24;;;;;;;4.62;0.93;;;12.70;74.30;;;;;;2469266;52;20990;-73
2021/05/19 00:40:51;;;;;;;1.42;0.70;;;12.70;74.30;;;;;;2342048;54;20966;-72
2021/05/19 00:43:17;;;;;;;3.15;0.62;;;12.70;74.40;;;;;;2339985;54;20980;-73
2021/05/19 00:45:44;;;;;;;1.80;0.70;;;12.70;74.50;;;;;;2408356;53;21747;-72
2021/05/19 00:48:14;;;;;;;1.08;0.50;;;12.70;74.50;;;;;;2319158;54;21016;-72
2021/05/19 00:50:41;;;;;;;1.27;0.50;;;12.80;74.60;;;;;;2452800;53;20956;-73
2021/05/19 00:53:07;;;;;;;1.90;0.60;;;12.80;75.40;;;;;;2370494;53;20968;-72
2021/05/19 00:55:33;;;;;;;2.28;0.70;;;12.80;74.70;;;;;;2320855;54;20940;-72
2021/05/19 00:57:59;;;;;;;1.40;0.60;;;12.90;74.80;;;;;;2336518;54;21291;-73
2021/05/19 01:00:26;;;;;;;1.37;0.50;;;12.90;74.70;;;;;;2319789;54;20920;-72
2021/05/19 01:02:52;;;;;;;1.40;0.55;;;12.90;74.60;;;;;;2580911;53;20952;-72
2021/05/19 01:05:29;;;;;;;1.33;0.60;;;12.90;74.50;;;;;;2341998;54;21795;-72
2021/05/19 01:10:39;;;;;;;1.25;0.55;;;13.00;74.30;;;;;;2338021;53;21713;-73
2021/05/19 01:13:06;;;;;;;2.00;0.60;;;13.00;74.20;;;;;;2323314;54;21411;-72
2021/05/19 01:15:33;;;;;;;0.98;0.50;;;13.00;74.00;;;;;;2344057;54;20948;-72
2021/05/19 01:17:59;;;;;;;1.33;0.50;;;13.00;74.00;;;;;;2419734;53;21317;-73
2021/05/19 01:20:25;;;;;;;1.05;0.50;;;13.00;73.90;;;;;;2343840;54;20970;-72
2021/05/19 01:22:51;;;;;;;2.60;0.60;;;13.00;73.80;;;;;;2334141;54;20964;-71
2021/05/19 01:25:18;;;;;;;1.40;0.60;;;13.00;73.80;;;;;;2344852;54;20914;-72
2021/05/19 01:27:57;;;;;;;1.92;0.70;;;12.90;73.70;;;;;;2336223;53;20978;-73
2021/05/19 01:30:24;;;;;;;1.50;0.57;;;12.90;73.40;;;;;;2344093;54;21461;-72
2021/05/19 01:32:50;;;;;;;1.27;0.60;;;12.90;73.60;;;;;;2581452;53;20932;-71
2021/05/19 01:35:17;;;;;;;1.35;0.60;;;12.90;73.60;;;;;;2387125;53;20918;-72
2021/05/19 01:37:44;;;;;;;1.30;0.65;;;12.90;73.60;;;;;;2331401;54;20928;-73
2021/05/19 01:40:12;;;;;;;0.70;0.45;;;12.80;73.60;;;;;;2331486;54;20925;-71
2021/05/19 01:42:40;;;;;;;1.42;0.60;;;12.90;73.70;;;;;;2344115;54;21020;-73
2021/05/19 01:45:10;;;;;;;1.15;0.50;;;12.90;73.70;;;;;;2339749;54;20929;-72
2021/05/19 01:47:41;;;;;;;2.50;0.60;;;12.90;73.60;;;;;;2323481;54;20940;-72
2021/05/19 01:50:11;;;;;;;1.30;0.55;;;12.90;73.60;;;;;;2339507;54;20925;-74
2021/05/19 01:52:38;;;;;;;2.03;0.70;;;12.90;73.60;;;;;;2344020;54;20914;-73
2021/05/19 01:55:06;;;;;;;0.85;0.40;;;12.90;73.70;;;;;;2344302;54;21891;-73
2021/05/19 01:57:33;;;;;;;1.45;0.50;;;12.90;73.80;;;;;;2342211;54;20938;-73
2021/05/19 01:59:59;;;;;;;1.20;0.50;;;12.90;73.80;;;;;;2342123;54;20970;-73
2021/05/19 02:02:25;;;;;;;1.60;0.50;;;12.90;73.80;;;;;;2345218;54;21013;-73
2021/05/19 02:04:53;;;;;;;2.85;0.50;;;12.90;73.80;;;;;;2390828;53;20923;-73
2021/05/19 02:07:22;;;;;;;2.08;0.68;;;12.90;73.70;;;;;;2339457;54;20982;-73
2021/05/19 02:09:48;;;;;;;1.15;0.50;;;12.90;73.70;;;;;;2339182;54;20914;-71
2021/05/19 02:12:15;;;;;;;1.80;0.60;;;12.90;73.70;;;;;;2588915;52;20915;-73
2021/05/19 02:14:43;;;;;;;1.05;0.50;;;12.90;73.60;;;;;;2580571;53;20993;-73
2021/05/19 02:17:09;;;;;;;1.83;1.00;;;12.90;73.60;;;;;;2340684;54;20983;-73
2021/05/19 02:19:36;;;;;;;1.92;0.80;;;12.90;73.60;;;;;;2344999;54;21015;-73
2021/05/19 02:22:03;;;;;;;2.42;0.90;;;12.90;73.50;;;;;;2328153;55;21829;-72
2021/05/19 02:24:29;;;;;;;1.92;0.62;;;12.90;73.50;;;;;;2328308;54;20959;-72
2021/05/19 02:26:56;;;;;;;2.25;0.70;;;12.90;73.50;;;;;;2342880;54;20973;-73
2021/05/19 02:29:23;;;;;;;2.08;0.50;;;12.90;73.50;;;;;;2335358;54;20919;-74
2021/05/19 02:31:50;;;;;;;2.55;0.60;;;12.90;73.60;;;;;;2341976;54;20998;-73
2021/05/19 02:34:16;;;;;;;1.77;0.77;;;12.90;73.70;;;;;;2342574;54;20962;-72
2021/05/19 02:36:43;;;;;;;1.20;0.60;;;12.80;73.60;;;;;;2345838;54;21040;-72
2021/05/19 02:39:10;;;;;;;4.22;0.80;;;12.90;73.80;;;;;;2325982;53;20985;-73
2021/05/19 02:41:43;;;;;;;2.20;0.70;;;12.80;73.60;;;;;;2348610;54;20922;-73
2021/05/19 02:44:09;;;;;;;1.87;0.75;;;12.90;73.70;;;;;;2369090;53;21051;-73
2021/05/19 02:46:35;;;;;;;2.05;0.88;;;12.90;73.90;;;;;;2340188;54;20906;-73
2021/05/19 02:49:02;;;;;;;2.12;0.77;;;12.90;74.00;;;;;;2499313;52;21777;-72
2021/05/19 02:51:33;;;;;;;1.45;0.62;;;12.90;74.00;;;;;;2558319;53;20933;-73
2021/05/19 02:53:59;;;;;;;2.47;0.55;;;12.90;73.80;;;;;;2345062;54;20946;-73
2021/05/19 02:56:25;;;;;;;2.40;0.70;;;12.90;73.90;;;;;;2337564;54;21038;-73
2021/05/19 02:58:52;;;;;;;3.17;0.55;;;12.90;73.90;;;;;;2588306;52;20942;-73
2021/05/19 03:01:18;;;;;;;1.33;0.60;;;12.90;73.90;;;;;;2341811;54;21002;-72
2021/05/19 03:03:48;;;;;;;1.67;0.70;;;12.90;73.80;;;;;;2342030;54;20955;-73
2021/05/19 03:06:15;;;;;;;2.03;0.73;;;12.90;73.80;;;;;;2341303;54;20998;-72
2021/05/19 03:08:41;;;;;;;1.33;0.60;;;12.90;73.70;;;;;;2580542;52;20948;-72
2021/05/19 03:11:08;;;;;;;1.98;0.70;;;12.90;73.60;;;;;;2586458;52;21057;-72
2021/05/19 03:13:34;;;;;;;2.75;0.90;;;12.90;73.50;;;;;;2334299;54;20986;-72
2021/05/19 03:16:01;;;;;;;1.33;0.60;;;12.90;73.60;;;;;;2342281;54;21017;-72
2021/05/19 03:18:28;;;;;;;1.25;0.57;;;12.80;73.50;;;;;;2337883;54;20911;-72
2021/05/19 03:20:55;;;;;;;1.58;0.55;;;12.80;73.40;;;;;;2342056;54;20942;-73
2021/05/19 03:23:22;;;;;;;1.45;0.60;;;12.80;73.40;;;;;;2588192;52;20921;-73
2021/05/19 03:25:48;;;;;;;1.15;0.50;;;12.80;73.40;;;;;;2345322;54;20943;-73
2021/05/19 03:28:16;;;;;;;1.98;0.70;;;12.80;73.30;;;;;;2334595;54;20915;-73
2021/05/19 03:30:43;;;;;;;3.00;0.70;;;12.80;73.30;;;;;;2341924;54;20945;-72
2021/05/19 03:33:09;;;;;;;2.33;0.80;;;12.80;73.30;;;;;;2587823;52;20926;-71
2021/05/19 03:35:35;;;;;;;5.10;0.80;;;12.80;73.20;;;;;;2342298;54;20926;-72
2021/05/19 03:38:02;;;;;;;2.50;0.55;;;12.80;73.20;;;;;;2341715;54;21881;-72
2021/05/19 03:40:31;;;;;;;3.53;0.90;;;12.70;73.10;;;;;;2496504;52;20938;-72
2021/05/19 03:42:57;;;;;;;1.83;0.73;;;12.70;73.30;;;;;;2449421;52;20954;-72
2021/05/19 03:45:24;;;;;;;2.25;0.77;;;12.70;73.30;;;;;;2586416;52;21645;-72
2021/05/19 03:47:52;;;;;;;3.03;1.30;;;12.70;73.50;;;;;;2535724;53;21798;-72
2021/05/19 03:50:25;;;;;;;3.00;0.98;;;12.70;73.60;;;;;;2342073;54;20946;-72
2021/05/19 03:52:52;;;;;;;2.20;0.90;;;12.70;73.60;;;;;;2341319;54;21795;-72
2021/05/19 03:55:19;;;;;;;1.58;0.62;;;12.70;73.80;;;;;;2341385;54;21040;-72
2021/05/19 03:57:45;;;;;;;3.03;0.90;;;12.70;74.00;;;;;;2338163;54;20966;-71
2021/05/19 04:00:16;;;;;;;1.73;0.68;;;12.70;74.00;;;;;;2342201;54;21030;-72
2021/05/19 04:02:49;;;;;;;1.87;0.73;;;12.70;73.90;;;;;;2346390;54;20927;-72
2021/05/19 04:05:25;;;;;;;1.50;0.70;;;12.70;74.00;;;;;;2344357;54;21025;-72
2021/05/19 04:07:52;;;;;;;2.33;1.00;;;12.70;74.00;;;;;;2344801;54;20934;-73
2021/05/19 04:10:19;;;;;;;1.50;0.60;;;12.70;74.10;;;;;;2334299;54;21003;-72
2021/05/19 04:12:48;;;;;;;1.83;0.75;;;12.80;74.30;;;;;;2340914;54;21000;-72
2021/05/19 04:15:15;;;;;;;1.73;0.73;;;12.80;74.30;;;;;;2322418;54;20981;-71
2021/05/19 04:17:41;;;;;;;1.95;0.80;;;12.80;74.40;;;;;;2337972;54;20957;-72
2021/05/19 04:20:09;;;;;;;1.33;0.60;;;12.80;74.50;;;;;;2460627;53;21088;-72
2021/05/19 04:22:35;;;;;;;1.87;0.80;;;12.80;74.50;;;;;;2336230;54;21003;-73
2021/05/19 04:25:02;;;;;;;2.42;0.77;;;12.80;74.60;;;;;;2341972;54;20963;-73
2021/05/19 04:27:29;;;;;;;1.50;0.70;;;12.90;74.70;;;;;;2337410;54;21049;-73
2021/05/19 04:29:55;;;;;;;1.95;0.80;;;12.90;74.80;;;;;;2341245;54;20943;-73
2021/05/19 04:32:21;;;;;;;3.20;0.80;;;12.90;74.80;;;;;;2344605;53;20986;-73
2021/05/19 04:34:49;;;;;;;2.50;1.33;;;12.90;74.80;;;;;;2341552;54;20918;-72
2021/05/19 04:37:16;;;;;;;5.22;2.05;;;13.00;74.90;;;;;;2345378;54;20998;-73
2021/05/19 04:39:42;;;;;;;4.62;2.05;;;13.00;74.90;;;;;;2578485;53;21665;-73
2021/05/19 04:42:10;;;;;;;4.12;1.90;;;13.10;75.00;;;;;;2337228;54;21828;-72
2021/05/19 04:44:37;;;;;;;2.97;1.35;;;13.10;75.00;;;;;;2341148;54;20974;-72
2021/05/19 04:47:03;;;;;;;3.20;1.20;;;13.10;75.00;;;;;;2339231;54;20924;-73
2021/05/19 04:49:29;;;;;;;2.83;1.30;;;13.10;75.00;;;;;;2320535;54;21011;-72
2021/05/19 04:51:56;;;;;;;2.30;1.02;;;13.20;75.00;;;;;;2338181;54;21010;-73
2021/05/19 04:54:23;;;;;;;2.80;1.20;;;13.20;74.90;;;;;;2588330;52;20966;-73
2021/05/19 04:56:49;;;;;;;4.93;1.20;;;13.20;75.00;;;;;;2341299;54;20973;-73
2021/05/19 04:59:16;;;;;;;4.25;1.75;;;13.30;75.10;;;;;;2570929;53;20927;-72
2021/05/19 05:01:43;;;;;;;4.28;2.20;;;13.30;75.00;;;;;;2343377;54;20976;-73
2021/05/19 05:04:10;;;;;;;3.62;2.08;;;13.40;75.10;;;;;;2316675;53;20935;-72
2021/05/19 05:06:36;;;;;;;4.45;1.92;;;13.40;75.00;;;;;;2587850;52;21410;-73
2021/05/19 05:09:03;;;;;;;2.95;1.40;;;13.40;75.00;;;;;;2342317;54;21046;-72
2021/05/19 05:11:30;;;;;;;2.33;0.95;;;13.40;74.90;;;;;;2341408;54;21471;-72
2021/05/19 05:13:56;;;;;;;6.97;1.37;;;13.50;75.00;;;;;;2341551;54;20978;-72
2021/05/19 05:16:24;;;;;;;2.50;1.00;;;13.50;74.90;;;;;;2516407;52;20910;-73
2021/05/19 05:18:51;;;;;;;3.30;1.20;;;13.50;74.80;;;;;;2587090;52;21571;-72
2021/05/19 05:21:18;;;;;;;4.12;1.00;;;13.60;74.80;;;;;;2340119;54;20964;-72
2021/05/19 05:23:45;;;;;;;3.62;1.20;;;13.60;74.70;;;;;;2320183;54;20940;-73
2021/05/19 05:26:14;;;;;;;2.45;0.88;;;13.70;74.70;;;;;;2339161;54;20914;-72
2021/05/19 05:28:40;;;;;;;1.90;1.00;;;13.60;74.60;;;;;;2342507;54;21424;-72
2021/05/19 05:31:06;;;;;;;1.90;0.80;;;13.70;74.60;;;;;;2372184;53;21022;-74
2021/05/19 05:33:33;;;;;;;2.12;0.90;;;13.70;74.70;;;;;;2382067;53;20926;-72
2021/05/19 05:36:04;;;;;;;3.42;1.00;;;13.70;74.60;;;;;;2341716;54;20950;-72
2021/05/19 05:38:34;;;;;;;1.98;0.88;;;13.70;74.60;;;;;;2346114;54;21695;-73
2021/05/19 05:41:00;;;;;;;3.45;1.00;;;13.70;74.50;;;;;;2318446;54;21010;-73
2021/05/19 05:43:29;;;;;;;1.95;0.82;;;13.70;74.60;;;;;;2341944;54;20895;-73
2021/05/19 05:45:56;;;;;;;2.95;0.88;;;13.80;74.60;;;;;;2397344;52;20910;-73
2021/05/19 05:48:23;;;;;;;3.03;1.02;;;13.80;74.70;;;;;;2402800;52;20992;-74
2021/05/19 05:50:50;;;;;;;3.87;1.20;;;13.80;74.80;;;;;;2337574;54;21030;-73
2021/05/19 05:53:16;;;;;;;1.92;0.95;;;13.80;74.80;;;;;;2342577;54;21029;-73
2021/05/19 05:55:43;;;;;;;2.80;1.20;;;13.90;75.00;;;;;;2343181;54;20968;-73
2021/05/19 05:58:09;;;;;;;3.00;0.90;;;13.90;75.20;;;;;;2340615;54;21659;-73
2021/05/19 06:00:36;;;;;;;2.08;0.90;;;14.00;75.30;;;;;;2348090;54;20974;-73
2021/05/19 06:03:07;;;;;;;2.92;1.15;;;14.00;75.40;;;;;;2335039;54;20943;-72
2021/05/19 06:05:35;;;;;;;2.65;1.30;;;14.10;75.20;;;;;;2347327;53;20926;-71
2021/05/19 06:08:04;;;;;;;2.53;1.25;;;14.10;74.90;;;;;;2345637;54;20968;-73
2021/05/19 06:10:30;;;;;;;3.03;1.20;;;14.10;74.90;;;;;;2560839;53;21057;-72
2021/05/19 06:12:56;;;;;;;2.58;1.17;;;14.20;75.30;;;;;;2339787;54;20948;-73
2021/05/19 06:15:23;;;;;;;2.70;1.30;;;14.20;75.20;;;;;;2589708;52;20930;-71
2021/05/19 06:17:49;;;;;;;2.67;1.23;;;14.30;75.10;;;;;;2344057;54;21002;-72
2021/05/19 06:20:16;;;;;;;2.95;1.40;;;14.30;75.20;;;;;;2344233;54;20986;-73
2021/05/19 06:22:46;;;;;;;2.70;1.08;;;14.40;75.00;;;;;;2590346;52;20919;-73
2021/05/19 06:25:12;;;;;;;2.87;1.20;;;14.40;74.90;;;;;;2582966;52;20940;-73
2021/05/19 06:27:39;;;;;;;4.37;1.67;;;14.40;74.90;;;;;;2342705;54;20939;-73
2021/05/19 06:30:07;;;;;;;3.35;1.60;;;14.50;74.20;;;;;;2344214;54;20982;-72
2021/05/19 06:32:34;;;;;;;4.05;1.40;;;14.50;73.50;;;;;;2344049;54;20924;-72
2021/05/19 06:35:01;;;;;;;2.87;1.30;;;14.50;73.70;;;;;;2343783;54;20926;-72
2021/05/19 06:37:28;;;;;;;2.40;1.10;;;14.50;73.40;;;;;;2590404;52;21021;-72
2021/05/19 06:39:55;;;;;;;3.67;1.12;;;14.50;74.00;;;;;;2344179;54;20930;-72
2021/05/19 06:42:22;;;;;;;3.95;1.35;;;14.60;74.40;;;;;;2494906;52;21260;-72
2021/05/19 06:44:48;;;;;;;3.75;1.20;;;14.60;74.20;;;;;;2425981;52;21236;-73
2021/05/19 06:47:14;;;;;;;3.78;1.48;;;14.60;74.30;;;;;;2589479;52;20930;-72
2021/05/19 06:49:42;;;;;;;2.95;1.17;;;14.70;74.30;;;;;;2344846;54;21025;-73
2021/05/19 06:52:08;;;;;;;2.97;1.30;;;14.70;74.80;;;;;;2375462;53;20936;-73
2021/05/19 06:54:37;;;;;;;2.80;1.33;;;14.80;75.50;;;;;;2336410;54;20940;-73
2021/05/19 06:57:05;;;;;;;2.20;1.17;;;14.80;75.60;;;;;;2576815;53;21048;-73
2021/05/19 06:59:31;;;;;;;3.05;1.30;;;14.90;76.20;;;;;;2412017;54;21061;-74
2021/05/19 07:01:57;;;;;;;3.42;1.52;;;15.00;76.40;;;;;;2344374;54;20934;-73
2021/05/19 07:04:23;;;;;;;3.90;1.30;;;15.20;76.30;;;;;;2345752;54;21020;-72
2021/05/19 07:06:51;;;;;;;2.90;1.20;;;15.30;77.20;;;;;;2341046;54;20926;-72
2021/05/19 07:09:18;;;;;;;2.10;1.10;;;15.50;77.80;;;;;;2323223;54;21040;-72
2021/05/19 07:11:45;;;;;;;3.05;1.08;;;15.60;78.10;;;;;;2328040;54;20929;-72
2021/05/19 07:14:16;;;;;;;3.10;1.00;;;15.70;78.30;;;;;;2344215;54;20931;-72
2021/05/19 07:16:53;;;;;;;3.15;1.40;;;15.90;78.20;;;;;;2568077;53;20961;-75
2021/05/19 07:19:20;;;;;;;2.03;0.98;;;16.00;77.80;;;;;;2331389;54;21013;-73
2021/05/19 07:21:47;;;;;;;3.20;1.30;;;16.20;78.30;;;;;;2419885;52;20966;-75
2021/05/19 07:24:13;;;;;;;3.00;1.30;;;16.40;79.10;;;;;;2343990;54;20931;-73
2021/05/19 07:26:41;;;;;;;2.90;1.25;;;16.60;79.20;;;;;;2471233;52;21042;-72
2021/05/19 07:29:07;;;;;;;2.30;1.00;;;16.70;78.90;;;;;;2343220;54;20935;-74
2021/05/19 07:31:34;;;;;;;2.92;1.23;;;16.80;78.40;;;;;;2437632;52;21710;-73
2021/05/19 07:34:01;;;;;;;3.05;1.00;;;17.00;77.80;;;;;;2319370;54;21072;-73
2021/05/19 07:36:27;;;;;;;4.03;1.27;;;17.00;77.40;;;;;;2332007;54;20958;-72
2021/05/19 07:38:54;;;;;;;3.35;0.93;;;17.10;77.00;;;;;;2344768;54;20922;-73
2021/05/19 07:41:23;;;;;;;3.00;1.20;;;17.20;77.30;;;;;;2344536;54;20931;-74
2021/05/19 07:43:50;;;;;;;2.70;1.12;;;17.20;76.40;;;;;;2348068;54;21033;-72
2021/05/19 07:46:18;;;;;;;3.15;1.17;;;17.30;76.00;;;;;;2390239;54;20944;-73
2021/05/19 07:48:44;;;;;;;2.10;1.00;;;17.40;75.90;;;;;;2557243;53;20945;-73
2021/05/19 07:51:10;;;;;;;3.85;1.10;;;17.40;75.90;;;;;;2557986;53;20971;-70
2021/05/19 07:53:36;;;;;;;2.50;1.15;;;17.50;76.40;;;;;;2371140;53;21774;-72
2021/05/19 07:56:33;;;;;;;3.55;1.45;;;17.60;76.30;;;;;;2392158;53;21781;-74
2021/05/19 07:59:10;;;;;;;3.25;1.48;;;17.60;73.30;;;;;;2557822;53;21005;-72
2021/05/19 08:02:05;;;;;;;6.55;1.55;;;17.60;72.10;;;;;;2558133;53;20933;-74
2021/05/19 08:04:35;;;;;;;3.17;1.17;;;17.50;71.60;;;;;;2557581;53;21393;-73
2021/05/19 08:07:02;;;;;;;2.25;1.08;;;17.40;71.40;;;;;;2334853;53;20980;-74
2021/05/19 08:09:28;;;;;;;4.28;1.10;;;17.40;71.00;;;;;;2392938;53;21820;-73
2021/05/19 08:11:55;;;;;;;2.70;1.30;;;17.30;71.80;;;;;;2470540;52;20974;-73
2021/05/19 08:14:21;;;;;;;2.78;1.30;;;17.30;72.40;;;;;;2591056;52;20934;-73
2021/05/19 08:16:47;;;;;;;3.87;1.40;;;17.30;73.50;;;;;;2343802;54;20942;-73
2021/05/19 08:19:13;;;;;;;2.53;1.27;;;17.30;73.30;;;;;;2462519;52;20963;-73
2021/05/19 08:21:40;;;;;;;2.55;1.10;;;17.30;73.20;;;;;;2337651;54;20975;-72
2021/05/19 08:24:08;;;;;;;2.83;1.10;;;17.40;74.30;;;;;;2343991;54;20930;-74
2021/05/19 08:26:34;;;;;;;3.10;1.20;;;17.40;74.40;;;;;;2591150;52;21074;-74
2021/05/19 08:29:00;;;;;;;3.90;1.50;;;17.50;74.30;;;;;;2399020;52;20931;-73
2021/05/19 08:31:27;;;;;;;3.80;1.40;;;17.60;74.70;;;;;;2432092;52;20935;-71
2021/05/19 08:34:02;;;;;;;3.10;1.35;;;17.60;74.80;;;;;;2343950;54;21003;-73
2021/05/19 08:36:31;;;;;;;3.05;1.20;;;17.70;74.10;;;;;;2339723;54;20952;-73
2021/05/19 08:38:58;;;;;;;3.92;1.30;;;17.70;74.40;;;;;;2530970;52;21668;-72
2021/05/19 08:41:25;;;;;;;5.20;1.50;;;17.80;73.80;;;;;;2375882;53;20934;-75
2021/05/19 08:43:52;;;;;;;2.40;1.00;;;17.80;73.60;;;;;;2342466;54;20934;-72
2021/05/19 08:46:19;;;;;;;2.87;1.20;;;17.90;74.10;;;;;;2543457;53;21862;-73
2021/05/19 08:48:52;;;;;;;4.85;1.40;;;18.00;74.60;;;;;;2364339;52;21431;-73
2021/05/19 08:51:18;;;;;;;3.62;1.40;;;18.00;74.00;;;;;;2337225;54;20938;-74
2021/05/19 08:53:45;;;;;;;3.22;1.40;;;18.10;74.10;;;;;;2342102;54;21838;-70
2021/05/19 08:56:13;;;;;;;2.83;1.00;;;18.20;73.60;;;;;;2342234;54;21707;-72
2021/05/19 08:58:39;;;;;;;2.75;1.25;;;18.20;73.90;;;;;;2415758;52;20931;-72
2021/05/19 09:01:06;;;;;;;6.00;1.20;;;18.30;73.10;;;;;;2512962;52;20998;-73
2021/05/19 09:03:33;;;;;;;2.45;1.20;;;18.30;72.40;;;;;;2342795;54;20990;-74
2021/05/19 09:06:02;;;;;;;3.65;1.08;;;18.40;72.70;;;;;;2342143;54;21855;-73
2021/05/19 09:08:35;;;;;;;3.60;1.02;;;18.50;72.80;;;;;;2342458;54;21399;-74
2021/05/19 09:11:03;;;;;;;3.10;1.20;;;18.50;71.80;;;;;;2342218;54;21033;-73
2021/05/19 09:13:48;;;;;;;2.60;1.20;;;18.50;71.20;;;;;;2335211;54;20980;-72
2021/05/19 09:16:28;;;;;;;1.48;0.73;;;18.50;69.00;;;;;;2326014;54;21612;-73
2021/05/19 09:18:56;;;;;;;3.37;1.20;;;18.50;69.20;;;;;;2338373;54;20951;-71
2021/05/19 09:21:42;;;;;;;2.97;1.33;;;18.40;69.70;;;;;;2586357;52;21855;-71
2021/05/19 09:24:32;;;;;;;3.15;1.35;;;18.40;68.10;;;;;;2336950;54;21487;-72
2021/05/19 09:27:00;;;;;;;2.12;1.00;;;18.30;68.20;;;;;;2342240;54;20946;-73
2021/05/19 09:29:33;;;;;;;2.45;0.80;;;18.30;70.80;;;;;;2342213;54;20934;-73
2021/05/19 09:32:12;;;;;;;2.20;0.90;;;18.30;71.20;;;;;;2345015;54;21814;-74
2021/05/19 09:34:42;;;;;;;3.67;1.30;;;18.30;72.90;;;;;;2342406;54;21006;-73
2021/05/19 09:37:34;;;;;;;4.07;1.23;;;18.40;72.10;;;;;;2581576;52;20940;-75
2021/05/19 09:40:18;;;;;;;3.42;1.15;;;18.50;70.60;;;;;;2327623;54;20959;-72
2021/05/19 09:42:47;;;;;;;3.47;0.82;;;18.60;70.00;;;;;;2568309;53;21466;-72
2021/05/19 09:45:30;;;;;;;2.80;1.10;;;18.60;72.90;;;;;;2394724;53;20922;-73
2021/05/19 09:47:57;;;;;;;3.65;0.80;;;18.70;73.10;;;;;;2333236;54;20958;-74
2021/05/19 09:50:41;;;;;;;2.60;1.15;;;18.80;74.40;;;;;;2334892;54;21897;-72
2021/05/19 09:53:12;;;;;;;2.58;0.90;;;18.90;73.40;;;;;;2386931;53;21017;-72
2021/05/19 09:56:43;;;;;;;4.20;1.00;;;19.10;74.00;;;;;;2342483;54;20967;-72
2021/05/19 09:59:22;;;;;;;2.95;1.05;;;19.20;73.20;;;;;;2327795;54;20952;-72
2021/05/19 10:01:49;;;;;;;2.92;1.08;;;19.30;72.10;;;;;;2330694;54;20989;-74
2021/05/19 10:04:17;;;;;;;2.03;0.90;;;19.40;73.70;;;;;;2350394;53;20940;-72
2021/05/19 10:06:44;;;;;;;3.87;1.00;;;19.50;73.80;;;;;;2579082;53;21044;-74
2021/05/19 10:09:18;;;;;;;2.58;1.10;;;19.60;74.50;;;;;;2409775;53;20940;-72
2021/05/19 10:11:45;;;;;;;3.67;0.80;;;19.80;73.80;;;;;;2581525;52;20931;-73
2021/05/19 10:14:14;;;;;;;1.77;0.70;;;19.90;73.80;;;;;;2338183;54;21024;-74
2021/05/19 10:16:44;;;;;;;4.00;0.70;;;19.90;73.80;;;;;;2338438;54;20992;-73
2021/05/19 10:19:13;;;;;;;3.60;1.00;;;20.00;72.90;;;;;;2319816;54;21373;-71
2021/05/19 10:21:39;;;;;;;3.10;1.20;;;20.10;71.80;;;;;;2410325;53;21069;-73
2021/05/19 10:24:09;;;;;;;2.25;0.77;;;20.20;73.20;;;;;;2333752;53;20832;-75
2021/05/19 10:27:00;;;;;;;2.12;0.70;;;20.30;73.20;;;;;;2431965;53;20945;-73
2021/05/19 10:31:29;;;;;;;3.62;0.80;;;20.40;70.60;;;;;;2349715;53;20957;-73
2021/05/19 10:33:57;;;;;;;2.87;0.73;;;20.50;69.40;;;;;;2555102;53;21731;-73
2021/05/19 10:36:34;;;;;;;2.58;0.85;;;20.60;72.10;;;;;;2317471;54;21316;-73
2021/05/19 10:40:33;;;;;;;3.03;0.90;;;20.60;71.30;;;;;;2334334;54;21537;-73
2021/05/19 10:43:01;;;;;;;1.67;0.82;;;20.80;66.00;;;;;;2335999;54;21040;-72
2021/05/19 10:45:27;;;;;;;1.87;0.70;;;20.80;70.80;;;;;;2325445;54;20995;-73
2021/05/19 10:47:55;;;;;;;2.72;0.80;;;20.80;71.40;;;;;;2342093;54;20934;-72
2021/05/19 10:50:34;;;;;;;2.67;0.80;;;20.80;71.30;;;;;;2342486;54;21693;-74
2021/05/19 10:59:02;;;;;;;2.53;1.05;;;21.10;70.40;;;;;;2342050;54;20914;-73
2021/05/19 11:02:43;;;;;;;1.73;0.70;;;21.20;70.60;;;;;;2340879;54;20921;-74
2021/05/19 11:05:13;;;;;;;1.50;0.60;;;21.20;69.20;;;;;;2588227;52;20954;-74
2021/05/19 11:08:04;;;;;;;1.75;0.70;;;21.20;71.10;;;;;;2344288;54;20961;-75
2021/05/19 11:10:30;;;;;;;2.80;0.80;;;21.30;69.60;;;;;;2320181;54;20952;-74
2021/05/19 11:12:58;;;;;;;1.62;0.70;;;21.30;69.50;;;;;;2338246;54;20982;-74
2021/05/19 11:17:27;;;;;;;2.53;0.70;;;21.20;69.40;;;;;;2360412;53;20935;-73
2021/05/19 11:19:54;;;;;;;1.80;0.60;;;21.30;67.50;;;;;;2423953;52;20943;-74
2021/05/19 11:22:20;;;;;;;2.55;1.00;;;21.30;70.50;;;;;;2579041;52;20942;-74
2021/05/19 11:24:56;;;;;;;2.20;0.77;;;21.40;69.60;;;;;;2355676;53;21012;-72
2021/05/19 11:27:35;;;;;;;3.30;0.65;;;21.40;68.70;;;;;;2583772;52;21727;-73
2021/05/19 11:30:25;;;;;;;2.28;0.70;;;21.30;69.50;;;;;;2341619;54;20986;-74
2021/05/19 11:33:11;;;;;;;2.70;1.20;;;21.40;67.30;;;;;;2342127;54;21783;-73
2021/05/19 11:35:38;;;;;;;1.65;0.75;;;21.30;67.70;;;;;;2342161;54;20939;-75
2021/05/19 11:38:08;;;;;;;2.37;0.88;;;21.40;70.00;;;;;;2341643;54;21368;-75
2021/05/19 11:40:53;;;;;;;2.67;0.80;;;21.40;70.00;;;;;;2340359;54;20973;-72
2021/05/19 11:43:24;;;;;;;3.90;1.77;;;21.40;67.20;;;;;;2340316;54;21006;-73
2021/05/19 11:45:57;;;;;;;4.80;2.12;;;21.50;68.10;;;;;;2444574;52;20930;-72
2021/05/19 11:48:28;;;;;;;2.85;1.00;;;21.50;67.40;;;;;;2588366;52;20938;-71
2021/05/19 11:51:05;;;;;;;5.00;1.00;;;21.40;68.40;;;;;;2341341;54;21005;-72
2021/05/19 11:53:31;;;;;;;1.50;0.57;;;21.30;68.00;;;;;;2410263;52;21376;-73
2021/05/19 11:56:01;;;;;;;2.30;0.70;;;21.20;67.20;;;;;;2338240;54;21004;-74
2021/05/19 11:58:29;;;;;;;2.12;0.70;;;21.10;66.40;;;;;;2342329;54;21003;-72
2021/05/19 12:01:01;;;;;;;2.00;0.60;;;20.90;65.20;;;;;;2334231;54;21469;-75
2021/05/19 12:03:31;;;;;;;2.28;0.60;;;20.60;63.40;;;;;;2341859;54;20942;-74
2021/05/19 12:06:03;;;;;;;2.03;0.40;;;20.30;61.70;;;;;;2341400;54;20936;-73
2021/05/19 12:08:39;;;;;;;1.42;0.37;;;19.90;60.30;;;;;;2393426;53;21021;-74
2021/05/19 12:11:20;;;;;;;1.67;0.70;;;19.50;59.30;;;;;;2327749;54;21018;-74
2021/05/19 12:14:04;;;;;;;1.95;0.70;;;19.10;59.10;;;;;;2344755;54;20936;-74
2021/05/19 12:16:42;;;;;;;1.80;0.50;;;18.60;59.40;;;;;;2507959;53;20948;-74
2021/05/19 12:19:25;;;;;;;1.35;0.50;;;18.20;60.00;;;;;;2332438;54;20985;-74
2021/05/19 12:22:02;;;;;;;1.35;0.50;;;17.70;60.50;;;;;;2342846;54;20978;-74
2021/05/19 12:24:30;;;;;;;2.25;0.70;;;17.30;61.40;;;;;;2340788;54;21060;-75
2021/05/19 12:26:56;;;;;;;2.33;0.80;;;17.00;62.10;;;;;;2338485;54;20938;-75
2021/05/19 12:29:58;;;;;;;2.25;0.60;;;16.70;62.80;;;;;;2341678;54;20989;-75
2021/05/19 12:32:28;;;;;;;2.40;0.60;;;16.40;63.20;;;;;;2342212;54;20931;-74
2021/05/19 12:35:28;;;;;;;2.30;0.62;;;16.10;64.30;;;;;;2345814;54;20954;-75
2021/05/19 12:38:02;;;;;;;2.62;0.43;;;15.90;64.20;;;;;;2336339;54;20935;-74
2021/05/19 12:40:30;;;;;;;3.78;0.80;;;15.60;64.90;;;;;;2337962;54;21008;-74
2021/05/19 12:43:01;;;;;;;0.52;0.37;;;15.40;65.60;;;;;;2433543;52;20958;-74
2021/05/19 12:45:30;;;;;;;1.92;0.60;;;15.20;66.00;;;;;;2588191;52;20939;-74
2021/05/19 12:48:13;;;;;;;2.53;0.70;;;15.10;66.80;;;;;;2334316;54;20950;-74
2021/05/19 12:50:47;;;;;;;1.70;0.60;;;14.90;67.30;;;;;;2588697;52;21467;-74
2021/05/19 12:53:36;;;;;;;1.48;0.60;;;14.70;68.00;;;;;;2443166;52;20938;-74
2021/05/19 12:56:44;;;;;;;1.70;0.70;;;14.70;68.40;;;;;;2342396;54;20967;-74
2021/05/19 12:59:12;;;;;;;1.58;0.70;;;14.50;68.40;;;;;;2351418;53;21529;-74
2021/05/19 13:01:45;;;;;;;2.30;0.55;;;14.50;69.20;;;;;;2341685;54;20930;-74
2021/05/19 13:04:13;;;;;;;1.20;0.55;;;14.40;69.50;;;;;;2342347;54;20962;-74
2021/05/19 13:06:40;;;;;;;3.22;1.25;;;14.30;69.90;;;;;;2338580;54;21717;-74
2021/05/19 13:09:07;;;;;;;2.25;0.90;;;14.20;70.00;;;;;;2411521;53;21014;-74
2021/05/19 13:11:45;;;;;;;1.73;0.70;;;14.10;70.20;;;;;;2342329;54;20986;-75
2021/05/19 13:14:28;;;;;;;3.40;0.80;;;14.10;70.40;;;;;;2342125;54;20947;-73
2021/05/19 13:16:54;;;;;;;1.37;0.62;;;14.00;70.60;;;;;;2344330;54;21566;-74